createdAt,value
2023-05-09T00:00:44.542Z,96074.2344
2023-05-09T00:01:45.588Z,96074.4609
2023-05-09T00:02:46.522Z,96075.0781
2023-05-09T00:03:47.561Z,96075.7656
2023-05-09T00:04:48.718Z,96076.6953
2023-05-09T00:05:49.671Z,96077.4609
2023-05-09T00:06:50.720Z,96078.0000
2023-05-09T00:07:51.617Z,96077.6953
2023-05-09T00:08:52.781Z,96076.6172
2023-05-09T00:09:53.739Z,96075.8438
2023-05-09T00:10:54.791Z,96074.2344
2023-05-09T00:11:55.733Z,96073.8438
2023-05-09T00:12:56.852Z,96073.0000
2023-05-09T00:13:57.811Z,96071.5391
2023-05-09T00:14:58.931Z,96070.8438
2023-05-09T00:15:59.941Z,96070.0000
2023-05-09T00:17:00.962Z,96068.6172
2023-05-09T00:18:01.968Z,96067.5391
2023-05-09T00:19:02.992Z,96065.8438
2023-05-09T00:20:04.053Z,96063.0000
2023-05-09T00:21:05.113Z,96061.0000
2023-05-09T00:22:06.065Z,96060.6953
2023-05-09T00:23:07.106Z,96061.1562
2023-05-09T00:24:08.167Z,96061.1562
2023-05-09T00:25:09.216Z,96062.1562
2023-05-09T00:26:10.227Z,96062.7656
2023-05-09T00:27:11.105Z,96063.2344
2023-05-09T00:28:12.120Z,96063.4609
2023-05-09T00:29:13.165Z,96062.2344
2023-05-09T00:30:14.195Z,96059.7656
2023-05-09T00:31:15.260Z,96058.2344
2023-05-09T00:32:16.435Z,96056.5391
2023-05-09T00:33:17.295Z,96055.0000
2023-05-09T00:34:18.291Z,96053.2344
2023-05-09T00:35:19.374Z,96051.4609
2023-05-09T00:36:20.371Z,96050.0781
2023-05-09T00:37:21.400Z,96050.0781
2023-05-09T00:38:22.418Z,96048.0000
2023-05-09T00:39:23.462Z,96048.3828
2023-05-09T00:40:24.503Z,96047.0781
2023-05-09T00:41:25.549Z,96046.8438
2023-05-09T00:42:26.524Z,96045.0781
2023-05-09T00:43:27.579Z,96045.1562
2023-05-09T00:44:28.593Z,96044.8438
2023-05-09T00:45:29.665Z,96043.9219
2023-05-09T00:46:30.804Z,96043.0000
2023-05-09T00:47:31.772Z,96040.6953
2023-05-09T00:48:32.710Z,96038.2344
2023-05-09T00:49:33.749Z,96038.0781
2023-05-09T00:50:34.779Z,96037.6172
2023-05-09T00:51:35.814Z,96035.5391
2023-05-09T00:52:36.831Z,96034.5391
2023-05-09T00:53:37.875Z,96034.7656
2023-05-09T00:54:38.890Z,96033.2344
2023-05-09T00:55:40.007Z,96032.9219
2023-05-09T00:56:41.011Z,96032.7656
2023-05-09T00:57:41.996Z,96032.3828
2023-05-09T00:58:43.049Z,96032.8438
2023-05-09T00:59:44.078Z,96031.2344
2023-05-09T01:00:45.135Z,96031.3047
2023-05-09T01:01:46.224Z,96030.2344
2023-05-09T01:02:47.273Z,96028.6172
2023-05-09T01:03:48.272Z,96028.3828
2023-05-09T01:04:49.226Z,96027.0000
2023-05-09T01:05:50.258Z,96026.7656
2023-05-09T01:06:51.326Z,96026.5391
2023-05-09T01:07:52.313Z,96026.6172
2023-05-09T01:08:53.355Z,96026.1562
2023-05-09T01:09:54.353Z,96026.0000
2023-05-09T01:10:55.436Z,96024.9219
2023-05-09T01:11:56.454Z,96024.3828
2023-05-09T01:12:57.534Z,96023.2344
2023-05-09T01:13:58.474Z,96022.3047
2023-05-09T01:14:59.533Z,96021.6953
2023-05-09T01:16:00.562Z,96020.6172
2023-05-09T01:17:01.613Z,96018.8438
2023-05-09T01:18:02.778Z,96016.1562
2023-05-09T01:19:03.691Z,96013.9219
2023-05-09T01:20:04.718Z,96010.9219
2023-05-09T01:21:05.772Z,96007.5391
2023-05-09T01:22:06.854Z,96005.9219
2023-05-09T01:23:07.868Z,96004.0000
2023-05-09T01:24:08.873Z,96002.3828
2023-05-09T01:25:09.889Z,95999.1562
2023-05-09T01:26:10.917Z,95997.7656
2023-05-09T01:27:11.995Z,95996.4609
2023-05-09T01:28:12.994Z,95995.3047
2023-05-09T01:29:14.090Z,95994.5391
2023-05-09T01:30:15.042Z,95994.2344
2023-05-09T01:31:16.224Z,95994.1562
2023-05-09T01:32:17.209Z,95994.7656
2023-05-09T01:33:18.372Z,95995.0781
2023-05-09T01:34:19.300Z,95996.3828
2023-05-09T01:35:20.312Z,95995.8438
2023-05-09T01:36:21.293Z,95995.3047
2023-05-09T01:37:22.370Z,95995.8438
2023-05-09T01:38:23.441Z,95995.3047
2023-05-09T01:39:24.528Z,95993.6172
2023-05-09T01:40:25.416Z,95993.0781
2023-05-09T01:41:26.477Z,95991.6172
2023-05-09T01:42:27.628Z,95989.6172
2023-05-09T01:43:28.618Z,95988.3828
2023-05-09T01:44:29.542Z,95988.1562
2023-05-09T01:45:30.595Z,95986.3047
2023-05-09T01:46:31.744Z,95984.3047
2023-05-09T01:47:32.757Z,95983.5391
2023-05-09T01:48:33.794Z,95983.1562
2023-05-09T01:49:34.735Z,95981.4609
2023-05-09T01:50:35.752Z,95980.3047
2023-05-09T01:51:36.804Z,95978.9219
2023-05-09T01:52:37.853Z,95977.6953
2023-05-09T01:53:38.933Z,95977.4609
2023-05-09T01:54:39.949Z,95977.6172
2023-05-09T01:55:40.951Z,95978.0000
2023-05-09T01:56:41.935Z,95980.0781
2023-05-09T01:57:43.040Z,95981.3047
2023-05-09T01:58:44.072Z,95982.0781
2023-05-09T01:59:45.128Z,95982.2344
2023-05-09T02:00:46.119Z,95982.1562
2023-05-09T02:01:47.121Z,95982.9219
2023-05-09T02:02:48.206Z,95983.7656
2023-05-09T02:03:49.282Z,95984.7656
2023-05-09T02:04:50.357Z,95985.3828
2023-05-09T02:05:51.226Z,95986.4609
2023-05-09T02:06:52.267Z,95986.5391
2023-05-09T02:07:53.308Z,95987.3047
2023-05-09T02:08:54.352Z,95987.2344
2023-05-09T02:09:55.387Z,95987.8438
2023-05-09T02:10:56.386Z,95989.2344
2023-05-09T02:11:57.385Z,95991.2344
2023-05-09T02:12:58.441Z,95992.2344
2023-05-09T02:13:59.492Z,95991.8438
2023-05-09T02:15:00.566Z,95992.0000
2023-05-09T02:16:01.496Z,95991.6953
2023-05-09T02:17:02.646Z,95990.2344
2023-05-09T02:18:03.603Z,95989.3047
2023-05-09T02:19:04.727Z,95987.7656
2023-05-09T02:20:05.689Z,95986.1562
2023-05-09T02:21:06.687Z,95985.6172
2023-05-09T02:22:07.690Z,95985.4609
2023-05-09T02:23:08.730Z,95985.1562
2023-05-09T02:24:09.831Z,95984.6953
2023-05-09T02:25:10.829Z,95983.8438
2023-05-09T02:26:11.836Z,95982.5391
2023-05-09T02:27:12.931Z,95981.3828
2023-05-09T02:28:13.896Z,95979.0000
2023-05-09T02:29:14.960Z,95977.3828
2023-05-09T02:30:16.070Z,95976.6172
2023-05-09T02:31:16.971Z,95975.7656
2023-05-09T02:32:18.031Z,95974.6172
2023-05-09T02:33:19.024Z,95973.6172
2023-05-09T02:34:20.182Z,95972.0000
2023-05-09T02:35:21.130Z,95971.5391
2023-05-09T02:36:22.232Z,95971.5391
2023-05-09T02:37:23.131Z,95970.9219
2023-05-09T02:38:24.194Z,95971.5391
2023-05-09T02:39:25.269Z,95970.3047
2023-05-09T02:40:26.339Z,95971.6953
2023-05-09T02:41:27.291Z,95971.4609
2023-05-09T02:42:28.309Z,95971.9219
2023-05-09T02:43:29.329Z,95971.6953
2023-05-09T02:44:30.428Z,95971.8438
2023-05-09T02:45:31.452Z,95972.3047
2023-05-09T02:46:32.644Z,95972.3047
2023-05-09T02:47:33.616Z,95971.2344
2023-05-09T02:48:34.490Z,95970.3047
2023-05-09T02:49:35.666Z,95968.9219
2023-05-09T02:50:36.672Z,95970.0781
2023-05-09T02:51:37.584Z,95969.7656
2023-05-09T02:52:38.669Z,95970.5391
2023-05-09T02:53:39.666Z,95970.0781
2023-05-09T02:54:40.844Z,95969.6953
2023-05-09T02:55:41.823Z,95968.9219
2023-05-09T02:56:42.751Z,95967.7656
2023-05-09T02:57:43.771Z,95966.5391
2023-05-09T02:58:44.812Z,95966.9219
2023-05-09T02:59:45.904Z,95967.1562
2023-05-09T03:00:46.959Z,95968.1562
2023-05-09T03:01:47.933Z,95968.4609
2023-05-09T03:02:49.020Z,95968.4609
2023-05-09T03:03:49.989Z,95967.5391
2023-05-09T03:04:51.157Z,95966.5391
2023-05-09T03:05:52.073Z,95965.6953
2023-05-09T03:06:53.066Z,95965.1562
2023-05-09T03:07:54.104Z,95965.0000
2023-05-09T03:08:55.092Z,95965.5391
2023-05-09T03:09:56.229Z,95965.4609
2023-05-09T03:10:57.264Z,95966.3047
2023-05-09T03:11:58.217Z,95967.0000
2023-05-09T03:12:59.250Z,95968.2344
2023-05-09T03:14:00.283Z,95969.0781
2023-05-09T03:15:01.369Z,95967.5391
2023-05-09T03:16:02.437Z,95965.6953
2023-05-09T03:17:03.344Z,95963.3828
2023-05-09T03:18:04.510Z,95962.5391
2023-05-09T03:19:05.415Z,95961.9219
2023-05-09T03:20:06.549Z,95960.0781
2023-05-09T03:21:07.616Z,95957.8438
2023-05-09T03:22:08.493Z,95956.7656
2023-05-09T03:23:09.507Z,95956.1562
2023-05-09T03:24:10.634Z,95956.3828
2023-05-09T03:25:11.764Z,95957.9219
2023-05-09T03:26:12.665Z,95959.3047
2023-05-09T03:27:13.618Z,95961.3047
2023-05-09T03:28:14.666Z,95963.2344
2023-05-09T03:29:15.669Z,95964.3828
2023-05-09T03:30:16.806Z,95964.8438
2023-05-09T03:31:17.797Z,95963.3047
2023-05-09T03:32:18.789Z,95961.8438
2023-05-09T03:33:19.772Z,95959.8438
2023-05-09T03:34:20.836Z,95957.9219
2023-05-09T03:35:22.034Z,95956.3828
2023-05-09T03:36:22.934Z,95954.6953
2023-05-09T03:37:25.532Z,95953.1562
2023-05-09T03:38:24.975Z,95950.4609
2023-05-09T03:39:26.067Z,95948.2344
2023-05-09T03:40:27.106Z,95948.0781
2023-05-09T03:41:28.147Z,95949.3828
2023-05-09T03:42:29.186Z,95949.6953
2023-05-09T03:43:30.096Z,95950.3047
2023-05-09T03:44:31.153Z,95951.9219
2023-05-09T03:45:32.241Z,95952.3828
2023-05-09T03:46:33.295Z,95952.0781
2023-05-09T03:47:34.313Z,95950.7656
2023-05-09T03:48:35.266Z,95949.0781
2023-05-09T03:49:36.379Z,95947.9219
2023-05-09T03:50:37.480Z,95947.6953
2023-05-09T03:51:39.868Z,95947.6953
2023-05-09T03:52:39.402Z,95949.6172
2023-05-09T03:53:40.431Z,95949.7656
2023-05-09T03:54:41.433Z,95948.0781
2023-05-09T03:55:42.546Z,95947.6953
2023-05-09T03:56:43.601Z,95946.5391
2023-05-09T03:57:44.519Z,95945.6172
2023-05-09T03:58:45.548Z,95946.0000
2023-05-09T03:59:46.630Z,95947.3047
2023-05-09T04:00:47.635Z,95948.5391
2023-05-09T04:01:48.713Z,95948.7656
2023-05-09T04:02:49.727Z,95949.2344
2023-05-09T04:03:50.775Z,95951.3828
2023-05-09T04:04:51.732Z,95951.6172
2023-05-09T04:05:52.841Z,95953.1562
2023-05-09T04:06:53.882Z,95953.6172
2023-05-09T04:07:54.777Z,95954.3047
2023-05-09T04:08:55.898Z,95954.3828
2023-05-09T04:09:56.921Z,95954.6953
2023-05-09T04:10:57.937Z,95954.2344
2023-05-09T04:11:58.933Z,95954.4609
2023-05-09T04:12:59.974Z,95954.9219
2023-05-09T04:14:00.958Z,95953.8438
2023-05-09T04:15:01.987Z,95954.2344
2023-05-09T04:16:03.050Z,95953.6953
2023-05-09T04:17:04.186Z,95953.3047
2023-05-09T04:18:05.163Z,95952.8438
2023-05-09T04:19:06.100Z,95952.3047
2023-05-09T04:20:07.147Z,95952.1562
2023-05-09T04:21:08.298Z,95952.3047
2023-05-09T04:22:09.282Z,95953.9219
2023-05-09T04:23:10.224Z,95954.1562
2023-05-09T04:24:11.257Z,95953.3828
2023-05-09T04:25:12.379Z,95954.3828
2023-05-09T04:26:13.361Z,95953.7656
2023-05-09T04:27:14.390Z,95952.8438
2023-05-09T04:28:15.370Z,95953.5391
2023-05-09T04:29:16.344Z,95953.1562
2023-05-09T04:30:17.490Z,95952.2344
2023-05-09T04:31:18.572Z,95951.1562
2023-05-09T04:32:19.580Z,95950.4609
2023-05-09T04:33:20.509Z,95950.6172
2023-05-09T04:34:21.561Z,95949.7656
2023-05-09T04:35:22.907Z,95950.3047
2023-05-09T04:36:23.693Z,95950.3828
2023-05-09T04:37:24.638Z,95951.6953
2023-05-09T04:38:25.651Z,95952.9219
2023-05-09T04:39:26.656Z,95955.0000
2023-05-09T04:40:27.716Z,95956.1562
2023-05-09T04:41:28.802Z,95957.0781
2023-05-09T04:42:29.830Z,95957.0781
2023-05-09T04:43:30.831Z,95956.8438
2023-05-09T04:44:31.829Z,95956.5391
2023-05-09T04:45:32.820Z,95954.6953
2023-05-09T04:46:34.081Z,95952.7656
2023-05-09T04:47:35.053Z,95950.1562
2023-05-09T04:48:35.911Z,95947.6172
2023-05-09T04:49:37.008Z,95945.3047
2023-05-09T04:50:37.967Z,95943.5391
2023-05-09T04:51:39.112Z,95941.6953
2023-05-09T04:52:40.145Z,95940.4609
2023-05-09T04:53:41.058Z,95942.5391
2023-05-09T04:54:42.086Z,95944.6172
2023-05-09T04:55:43.142Z,95945.2344
2023-05-09T04:56:44.202Z,95947.4609
2023-05-09T04:57:45.221Z,95949.3828
2023-05-09T04:58:46.185Z,95951.1562
2023-05-09T04:59:47.268Z,95950.1562
2023-05-09T05:00:48.222Z,95947.3047
2023-05-09T05:01:49.381Z,95947.4609
2023-05-09T05:02:50.392Z,95947.8438
2023-05-09T05:03:51.422Z,95947.7656
2023-05-09T05:04:56.017Z,95947.3828
2023-05-09T05:05:53.498Z,95946.9219
2023-05-09T05:06:54.546Z,95945.2344
2023-05-09T05:07:55.533Z,95943.0000
2023-05-09T05:08:56.478Z,95942.1562
2023-05-09T05:09:57.520Z,95941.7656
2023-05-09T05:10:58.633Z,95939.0781
2023-05-09T05:12:02.844Z,95938.4609
2023-05-09T05:13:00.754Z,95939.3047
2023-05-09T05:14:01.613Z,95941.3047
2023-05-09T05:15:02.753Z,95941.6953
2023-05-09T05:16:03.757Z,95941.5391
2023-05-09T05:17:04.788Z,95939.7656
2023-05-09T05:18:05.861Z,95937.6953
2023-05-09T05:19:06.958Z,95937.0000
2023-05-09T05:20:07.857Z,95935.1562
2023-05-09T05:21:08.917Z,95934.3828
2023-05-09T05:22:10.067Z,95934.6953
2023-05-09T05:23:11.021Z,95935.0000
2023-05-09T05:24:11.973Z,95935.3047
2023-05-09T05:25:13.188Z,95933.9219
2023-05-09T05:26:14.096Z,95932.9219
2023-05-09T05:27:15.163Z,95931.2344
2023-05-09T05:28:16.197Z,95929.0781
2023-05-09T05:29:17.136Z,95928.7656
2023-05-09T05:30:18.145Z,95929.6172
2023-05-09T05:31:19.235Z,95931.1562
2023-05-09T05:32:20.219Z,95932.4609
2023-05-09T05:33:21.273Z,95932.8438
2023-05-09T05:34:22.272Z,95932.1562
2023-05-09T05:35:23.373Z,95932.6172
2023-05-09T05:36:24.384Z,95931.7656
2023-05-09T05:37:25.440Z,95931.3828
2023-05-09T05:38:26.434Z,95932.0000
2023-05-09T05:39:27.420Z,95933.9219
2023-05-09T05:40:28.453Z,95936.6953
2023-05-09T05:41:29.459Z,95939.6172
2023-05-09T05:42:30.592Z,95941.9219
2023-05-09T05:43:31.569Z,95943.6953
2023-05-09T05:44:32.551Z,95942.5391
2023-05-09T05:45:33.578Z,95941.9219
2023-05-09T05:46:34.607Z,95941.5391
2023-05-09T05:47:35.707Z,95942.8438
2023-05-09T05:48:36.674Z,95942.5391
2023-05-09T05:49:37.651Z,95942.5391
2023-05-09T05:50:38.771Z,95941.2344
2023-05-09T05:51:39.737Z,95940.6172
2023-05-09T05:52:40.859Z,95942.9219
2023-05-09T05:53:41.851Z,95943.6953
2023-05-09T05:54:42.832Z,95942.9219
2023-05-09T05:55:43.857Z,95939.3828
2023-05-09T05:56:44.951Z,95938.0781
2023-05-09T05:57:45.992Z,95936.7656
2023-05-09T05:58:46.992Z,95934.7656
2023-05-09T05:59:47.950Z,95933.3828
2023-05-09T06:00:48.986Z,95933.2344
2023-05-09T06:01:50.005Z,95931.1562
2023-05-09T06:02:51.168Z,95927.6172
2023-05-09T06:03:52.162Z,95926.8438
2023-05-09T06:04:54.654Z,95925.3828
2023-05-09T06:05:54.109Z,95922.5391
2023-05-09T06:06:55.130Z,95919.2344
2023-05-09T06:07:56.272Z,95916.3828
2023-05-09T06:08:57.233Z,95914.4609
2023-05-09T06:09:58.247Z,95914.0781
2023-05-09T06:10:59.252Z,95913.7656
2023-05-09T06:12:00.356Z,95914.7656
2023-05-09T06:13:01.435Z,95916.0781
2023-05-09T06:14:02.452Z,95916.3828
2023-05-09T06:15:03.338Z,95917.8438
2023-05-09T06:16:18.653Z,95918.2344
2023-05-09T06:17:05.465Z,95917.5391
2023-05-09T06:18:06.584Z,95917.5391
2023-05-09T06:19:07.510Z,95916.8438
2023-05-09T06:20:08.495Z,95916.6172
2023-05-09T06:21:09.493Z,95918.6172
2023-05-09T06:22:10.548Z,95919.9219
2023-05-09T06:23:11.692Z,95921.3047
2023-05-09T06:24:23.538Z,95923.0000
2023-05-09T06:25:13.862Z,95921.0000
2023-05-09T06:26:14.813Z,95919.3047
2023-05-09T06:27:15.709Z,95917.7656
2023-05-09T06:28:16.802Z,95915.1562
2023-05-09T06:29:17.855Z,95913.3828
2023-05-09T06:30:26.282Z,95911.8438
2023-05-09T06:31:19.871Z,95910.9219
2023-05-09T06:32:20.837Z,95907.2344
2023-05-09T06:33:21.959Z,95906.6172
2023-05-09T06:34:22.958Z,95906.0000
2023-05-09T06:35:23.966Z,95905.6953
2023-05-09T06:36:25.000Z,95905.9219
2023-05-09T06:37:26.016Z,95905.1562
2023-05-09T06:38:27.126Z,95904.3047
2023-05-09T06:39:28.092Z,95903.3828
2023-05-09T06:40:29.154Z,95902.8438
2023-05-09T06:41:30.140Z,95900.6172
2023-05-09T06:42:31.140Z,95896.1562
2023-05-09T06:43:32.213Z,95893.2344
2023-05-09T06:44:33.266Z,95891.0000
2023-05-09T06:45:34.258Z,95890.0781
2023-05-09T06:46:35.367Z,95890.9219
2023-05-09T06:47:36.316Z,95890.8438
2023-05-09T06:48:37.323Z,95891.2344
2023-05-09T06:49:38.446Z,95891.0781
2023-05-09T06:50:39.429Z,95890.0781
2023-05-09T06:51:40.376Z,95888.5391
2023-05-09T06:52:41.414Z,95887.0781
2023-05-09T06:53:42.495Z,95885.8438
2023-05-09T06:54:43.517Z,95885.3047
2023-05-09T06:55:44.515Z,95885.7656
2023-05-09T06:56:45.533Z,95888.0000
2023-05-09T06:57:46.653Z,95890.2344
2023-05-09T06:58:47.699Z,95890.0781
2023-05-09T06:59:48.679Z,95889.5391
2023-05-09T07:00:49.611Z,95887.6953
2023-05-09T07:01:50.668Z,95886.3828
2023-05-09T07:02:51.715Z,95884.0781
2023-05-09T07:03:52.812Z,95881.6953
2023-05-09T07:04:53.868Z,95881.1562
2023-05-09T07:05:54.764Z,95881.0000
2023-05-09T07:06:55.804Z,95881.0781
2023-05-09T07:07:56.837Z,95879.1562
2023-05-09T07:08:57.982Z,95877.1562
2023-05-09T07:10:10.316Z,95876.0000
2023-05-09T07:10:59.923Z,95875.3047
2023-05-09T07:12:01.008Z,95874.3047
2023-05-09T07:13:02.007Z,95872.7656
2023-05-09T07:14:03.077Z,95871.0781
2023-05-09T07:15:04.117Z,95870.8438
2023-05-09T07:16:05.127Z,95870.5391
2023-05-09T07:17:21.982Z,95869.8438
2023-05-09T07:18:07.140Z,95866.4609
2023-05-09T07:19:08.228Z,95864.6172
2023-05-09T07:20:09.210Z,95863.5391
2023-05-09T07:21:10.292Z,95862.8438
2023-05-09T07:22:11.242Z,95861.6953
2023-05-09T07:23:12.262Z,95859.9219
2023-05-09T07:24:13.429Z,95858.9219
2023-05-09T07:25:14.600Z,95858.6953
2023-05-09T07:26:15.373Z,95857.0000
2023-05-09T07:27:16.376Z,95853.6953
2023-05-09T07:28:17.408Z,95849.9219
2023-05-09T07:29:18.498Z,95845.9219
2023-05-09T07:30:19.503Z,95844.3047
2023-05-09T07:31:20.552Z,95841.6172
2023-05-09T07:32:21.540Z,95840.3828
2023-05-09T07:33:22.585Z,95837.8438
2023-05-09T07:34:23.679Z,95836.8438
2023-05-09T07:35:24.642Z,95835.2344
2023-05-09T07:36:25.679Z,95833.4609
2023-05-09T07:37:26.743Z,95832.8438
2023-05-09T07:38:27.686Z,95832.7656
2023-05-09T07:39:28.874Z,95832.8438
2023-05-09T07:40:29.896Z,95833.0000
2023-05-09T07:41:30.789Z,95833.3828
2023-05-09T07:42:31.803Z,95830.8438
2023-05-09T07:43:32.844Z,95827.9219
2023-05-09T07:44:33.895Z,95827.1562
2023-05-09T07:45:35.062Z,95826.0781
2023-05-09T07:46:35.987Z,95823.5391
2023-05-09T07:47:37.042Z,95821.6953
2023-05-09T07:48:38.015Z,95821.2344
2023-05-09T07:49:39.037Z,95820.6953
2023-05-09T07:50:40.114Z,95819.0000
2023-05-09T07:51:41.035Z,95818.2344
2023-05-09T07:52:42.118Z,95817.9219
2023-05-09T07:53:43.122Z,95818.0781
2023-05-09T07:54:44.335Z,95815.6172
2023-05-09T07:55:45.209Z,95813.0781
2023-05-09T07:56:46.159Z,95814.1562
2023-05-09T07:57:47.241Z,95813.0000
2023-05-09T07:58:48.211Z,95811.5391
2023-05-09T07:59:49.339Z,95808.8438
2023-05-09T08:00:50.368Z,95807.9219
2023-05-09T08:01:51.404Z,95807.1562
2023-05-09T08:02:52.449Z,95805.2344
2023-05-09T08:03:53.527Z,95803.9219
2023-05-09T08:04:54.509Z,95802.0781
2023-05-09T08:05:55.511Z,95799.6172
2023-05-09T08:06:56.492Z,95797.2344
2023-05-09T08:07:57.513Z,95794.3828
2023-05-09T08:08:58.593Z,95792.0781
2023-05-09T08:09:59.682Z,95790.7656
2023-05-09T08:11:00.705Z,95789.9219
2023-05-09T08:12:01.648Z,95787.6953
2023-05-09T08:13:02.756Z,95786.6172
2023-05-09T08:14:03.734Z,95786.3828
2023-05-09T08:15:04.762Z,95786.2344
2023-05-09T08:16:05.888Z,95785.1562
2023-05-09T08:17:06.856Z,95783.0000
2023-05-09T08:18:07.874Z,95781.3828
2023-05-09T08:19:08.813Z,95780.2344
2023-05-09T08:20:09.909Z,95777.9219
2023-05-09T08:21:10.961Z,95775.0781
2023-05-09T08:22:11.999Z,95774.9219
2023-05-09T08:23:12.980Z,95772.6172
2023-05-09T08:24:13.961Z,95768.3047
2023-05-09T08:25:15.318Z,95766.0000
2023-05-09T08:26:16.119Z,95763.3047
2023-05-09T08:27:17.074Z,95761.3047
2023-05-09T08:28:18.217Z,95758.7656
2023-05-09T08:29:19.413Z,95756.1562
2023-05-09T08:30:20.191Z,95754.8438
2023-05-09T08:31:21.291Z,95752.0000
2023-05-09T08:32:22.207Z,95751.8438
2023-05-09T08:33:23.243Z,95751.3047
2023-05-09T08:34:24.343Z,95752.4609
2023-05-09T08:35:25.420Z,95751.6953
2023-05-09T08:36:26.362Z,95750.0000
2023-05-09T08:37:27.404Z,95746.8438
2023-05-09T08:38:28.453Z,95744.5391
2023-05-09T08:39:29.441Z,95744.7656
2023-05-09T08:40:30.533Z,95744.3047
2023-05-09T08:41:31.586Z,95742.8438
2023-05-09T08:42:32.534Z,95742.6172
2023-05-09T08:43:33.567Z,95741.5391
2023-05-09T08:44:34.554Z,95740.6172
2023-05-09T08:45:35.653Z,95740.6172
2023-05-09T08:46:36.873Z,95739.3828
2023-05-09T08:47:37.703Z,95739.6953
2023-05-09T08:48:38.720Z,95739.5391
2023-05-09T08:49:39.719Z,95739.2344
2023-05-09T08:50:40.803Z,95736.6953
2023-05-09T08:51:41.837Z,95735.5391
2023-05-09T08:52:42.794Z,95733.5391
2023-05-09T08:53:43.815Z,95730.8438
2023-05-09T08:54:44.858Z,95728.0000
2023-05-09T08:55:45.988Z,95726.5391
2023-05-09T08:56:46.989Z,95725.0781
2023-05-09T08:57:47.968Z,95723.9219
2023-05-09T08:58:49.065Z,95724.0000
2023-05-09T08:59:50.066Z,95723.0781
2023-05-09T09:00:51.163Z,95720.9219
2023-05-09T09:01:52.157Z,95718.3828
2023-05-09T09:02:53.311Z,95715.2344
2023-05-09T09:03:54.187Z,95712.2344
2023-05-09T09:04:55.108Z,95709.2344
2023-05-09T09:05:56.252Z,95707.0000
2023-05-09T09:06:57.205Z,95704.3828
2023-05-09T09:07:58.216Z,95704.1562
2023-05-09T09:08:59.263Z,95702.1562
2023-05-09T09:10:00.221Z,95698.6953
2023-05-09T09:11:01.345Z,95698.1562
2023-05-09T09:12:02.299Z,95698.2344
2023-05-09T09:13:03.402Z,95697.6953
2023-05-09T09:14:04.374Z,95697.0781
2023-05-09T09:15:05.391Z,95696.5391
2023-05-09T09:16:06.446Z,95696.2344
2023-05-09T09:17:07.478Z,95696.1562
2023-05-09T09:18:08.594Z,95695.9219
2023-05-09T09:19:09.566Z,95694.6172
2023-05-09T09:20:10.573Z,95694.0000
2023-05-09T09:21:11.612Z,95692.3828
2023-05-09T09:22:12.674Z,95691.8438
2023-05-09T09:23:13.687Z,95690.6953
2023-05-09T09:24:14.685Z,95691.3828
2023-05-09T09:25:15.762Z,95692.0781
2023-05-09T09:26:16.810Z,95690.9219
2023-05-09T09:27:17.837Z,95689.1562
2023-05-09T09:28:18.879Z,95687.5391
2023-05-09T09:29:19.850Z,95685.0781
2023-05-09T09:30:20.893Z,95682.0000
2023-05-09T09:31:21.975Z,95679.2344
2023-05-09T09:32:22.982Z,95679.0781
2023-05-09T09:33:24.016Z,95678.3828
2023-05-09T09:34:25.014Z,95676.3047
2023-05-09T09:35:26.037Z,95675.8438
2023-05-09T09:36:27.073Z,95674.0781
2023-05-09T09:37:28.127Z,95672.1562
2023-05-09T09:38:29.099Z,95670.6172
2023-05-09T09:39:30.147Z,95669.6953
2023-05-09T09:40:31.154Z,95667.7656
2023-05-09T09:41:32.240Z,95665.7656
2023-05-09T09:42:33.248Z,95665.1562
2023-05-09T09:43:34.256Z,95663.1562
2023-05-09T09:44:35.270Z,95664.0000
2023-05-09T09:45:36.399Z,95661.5391
2023-05-09T09:46:37.465Z,95657.6953
2023-05-09T09:47:38.395Z,95655.2344
2023-05-09T09:48:39.433Z,95653.5391
2023-05-09T09:49:40.410Z,95653.0781
2023-05-09T09:50:41.486Z,95651.6172
2023-05-09T09:51:42.456Z,95650.3828
2023-05-09T09:52:43.526Z,95650.6172
2023-05-09T09:53:44.515Z,95650.1562
2023-05-09T09:54:45.591Z,95649.7656
2023-05-09T09:55:46.588Z,95646.7656
2023-05-09T09:56:47.713Z,95643.1562
2023-05-09T09:57:48.599Z,95640.4609
2023-05-09T09:58:49.720Z,95637.8438
2023-05-09T09:59:50.719Z,95634.9219
2023-05-09T10:00:51.755Z,95633.4609
2023-05-09T10:01:52.751Z,95633.0781
2023-05-09T10:02:53.821Z,95630.1562
2023-05-09T10:03:54.943Z,95628.6172
2023-05-09T10:04:55.892Z,95629.0781
2023-05-09T10:05:56.880Z,95629.1562
2023-05-09T10:06:57.941Z,95629.1562
2023-05-09T10:07:58.932Z,95627.3047
2023-05-09T10:08:59.971Z,95624.3047
2023-05-09T10:10:01.038Z,95621.0000
2023-05-09T10:11:02.074Z,95618.1562
2023-05-09T10:12:03.146Z,95614.5391
2023-05-09T10:13:04.143Z,95612.2344
2023-05-09T10:14:05.086Z,95610.1562
2023-05-09T10:15:06.191Z,95608.3047
2023-05-09T10:16:07.281Z,95607.4609
2023-05-09T10:17:08.368Z,95604.1562
2023-05-09T10:18:09.450Z,95604.8438
2023-05-09T10:19:10.312Z,95602.3828
2023-05-09T10:20:11.313Z,95599.3047
2023-05-09T10:21:12.385Z,95597.5391
2023-05-09T10:22:13.422Z,95595.8438
2023-05-09T10:23:14.417Z,95591.3047
2023-05-09T10:24:15.408Z,95587.0000
2023-05-09T10:25:16.628Z,95586.9219
2023-05-09T10:26:17.504Z,95586.2344
2023-05-09T10:27:18.587Z,95583.7656
2023-05-09T10:28:19.616Z,95582.5391
2023-05-09T10:29:20.572Z,95584.0781
2023-05-09T10:30:21.603Z,95583.0000
2023-05-09T10:31:22.731Z,95582.7656
2023-05-09T10:32:23.680Z,95582.9219
2023-05-09T10:33:24.748Z,95579.4609
2023-05-09T10:34:25.739Z,95576.8438
2023-05-09T10:35:26.768Z,95576.1562
2023-05-09T10:36:27.800Z,95576.0000
2023-05-09T10:37:28.850Z,95576.1562
2023-05-09T10:38:29.903Z,95574.3828
2023-05-09T10:39:30.871Z,95572.0781
2023-05-09T10:40:31.945Z,95569.9219
2023-05-09T10:41:32.956Z,95569.4609
2023-05-09T10:42:34.066Z,95568.7656
2023-05-09T10:43:36.674Z,95567.0000
2023-05-09T10:44:36.077Z,95564.0781
2023-05-09T10:45:37.066Z,95563.6172
2023-05-09T10:46:38.154Z,95563.7656
2023-05-09T10:47:39.190Z,95562.0781
2023-05-09T10:48:40.228Z,95561.6953
2023-05-09T10:49:41.192Z,95561.0000
2023-05-09T10:50:42.218Z,95556.8438
2023-05-09T10:51:43.253Z,95551.2344
2023-05-09T10:52:44.287Z,95547.3047
2023-05-09T10:53:45.327Z,95548.5391
2023-05-09T10:54:46.426Z,95547.7656
2023-05-09T10:55:47.518Z,95544.3828
2023-05-09T10:56:48.434Z,95541.9219
2023-05-09T10:57:49.635Z,95541.7656
2023-05-09T10:58:50.663Z,95538.0000
2023-05-09T10:59:51.565Z,95537.1562
2023-05-09T11:00:52.998Z,95536.2344
2023-05-09T11:01:53.659Z,95532.9219
2023-05-09T11:02:54.679Z,95532.6953
2023-05-09T11:03:55.795Z,95529.3047
2023-05-09T11:04:56.776Z,95526.3047
2023-05-09T11:05:57.723Z,95525.0781
2023-05-09T11:06:58.790Z,95522.5391
2023-05-09T11:07:59.827Z,95519.8438
2023-05-09T11:09:00.829Z,95519.0781
2023-05-09T11:10:01.858Z,95518.7656
2023-05-09T11:11:02.896Z,95516.6953
2023-05-09T11:12:03.887Z,95512.7656
2023-05-09T11:13:05.132Z,95509.0000
2023-05-09T11:14:06.014Z,95507.7656
2023-05-09T11:15:06.993Z,95505.7656
2023-05-09T11:16:08.011Z,95503.3828
2023-05-09T11:17:09.018Z,95501.4609